Terminal Aerodrome Forecast
Issued by NWS

Home | Current Version | Previous Version | Text Only | Print | Product List | Glossary On
Versions: 1 2 3 4 5 6 7 8 9 10 11 12 13 14 15 16 17 18 19 20
942
FTUS45 KTFX 041136
TAFCTB
TAF
KCTB 041136Z 0412/0512 23014KT P6SM BKN150
     FM041700 25015G25KT P6SM SCT090 BKN150
     FM042100 33018G30KT P6SM VCSH SCT030 OVC060 PROB30 0421/0424
      3SM -SN BKN025
     FM050000 35012KT 2SM -SN BR OVC015
      TEMPO 0502/0506 3/4SM -SN BR OVC007
     FM050600 34015KT 3/4SM -SN BR OVC010=

USA.gov is the U.S. government's official web portal to all federal, state and local government web resources and services.